EZY44PM EGGW-LGKR
Flight info
| Callsign | EZY44PM |
|---|---|
| Flight time | N/A |
| Altitude | 37000 |
| Route | MATCH Q295 BRAIN P44 DAGGA M85 ITVIP L10 DVR UL9 KONAN DCT KOK UL607 SPI DCT ULNOK DCT VIBOM DCT NOMBO DCT RIDAR DCT RADIZ DCT SABAD DCT VAKSU DCT KOFER DCT RODON DCT LIMJA N732 PITAS |
| Aircraft | A320/M-SDE3FGHIRWY/LB1 |
Departure
| Time | 2026-04-28 19:35 |
|---|---|
| Airport | London Luton Airport (EGGW) |
Arrival
| Time | N/A |
|---|---|
| Airport | Corfu Ioannis Kapodistrias International Airport (LGKR) |
| Time | Latitude | Longitude | Altitude | Speed | Heading |
|---|---|---|---|---|---|
| 2026-04-28 19:35 | 51.79832 | 0.04067 | 7777 ft | 275 kts | 115° |
| 2026-04-28 19:35 | 51.78777 | 0.06632 | 8586 ft | 276 kts | 127° |
| 2026-04-28 19:35 | 51.77608 | 0.09107 | 9406 ft | 278 kts | 127° |
| 2026-04-28 19:35 | 51.76430 | 0.11618 | 10183 ft | 282 kts | 127° |
| 2026-04-28 19:36 | 51.75207 | 0.14221 | 10531 ft | 303 kts | 127° |
| 2026-04-28 19:36 | 51.73882 | 0.17035 | 10743 ft | 327 kts | 127° |
| 2026-04-28 19:36 | 51.72458 | 0.20053 | 10925 ft | 348 kts | 127° |
| 2026-04-28 19:36 | 51.70968 | 0.23206 | 11447 ft | 356 kts | 127° |
| 2026-04-28 19:37 | 51.69458 | 0.26394 | 12104 ft | 360 kts | 127° |
| 2026-04-28 19:37 | 51.68444 | 0.28529 | 12543 ft | 363 kts | 127° |
| 2026-04-28 19:37 | 51.66374 | 0.32870 | 13402 ft | 367 kts | 127° |
| 2026-04-28 19:37 | 51.64808 | 0.36144 | 14026 ft | 371 kts | 127° |
| 2026-04-28 19:38 | 51.63229 | 0.39442 | 14636 ft | 374 kts | 127° |
| 2026-04-28 19:38 | 51.61663 | 0.42711 | 15203 ft | 377 kts | 127° |
| 2026-04-28 19:38 | 51.60055 | 0.46066 | 15777 ft | 380 kts | 128° |
| 2026-04-28 19:38 | 51.58434 | 0.49440 | 16328 ft | 383 kts | 128° |
| 2026-04-28 19:39 | 51.56801 | 0.52845 | 16858 ft | 386 kts | 127° |
| 2026-04-28 19:39 | 51.55156 | 0.56278 | 17374 ft | 389 kts | 127° |
| 2026-04-28 19:39 | 51.53499 | 0.59730 | 17885 ft | 391 kts | 128° |
| 2026-04-28 19:39 | 51.51832 | 0.63190 | 18384 ft | 394 kts | 128° |
| 2026-04-28 19:40 | 51.50150 | 0.66678 | 18867 ft | 397 kts | 128° |
| 2026-04-28 19:40 | 51.48451 | 0.70196 | 19324 ft | 400 kts | 128° |
| 2026-04-28 19:40 | 51.46740 | 0.73732 | 19798 ft | 402 kts | 128° |
| 2026-04-28 19:40 | 51.45015 | 0.77290 | 20249 ft | 405 kts | 128° |
| 2026-04-28 19:41 | 51.43279 | 0.80860 | 20689 ft | 407 kts | 128° |
| 2026-04-28 19:41 | 51.41531 | 0.84452 | 21112 ft | 410 kts | 128° |
| 2026-04-28 19:41 | 51.39777 | 0.88060 | 21527 ft | 413 kts | 128° |
| 2026-04-28 19:41 | 51.38007 | 0.91700 | 21936 ft | 415 kts | 128° |
| 2026-04-28 19:42 | 51.36228 | 0.95357 | 22345 ft | 417 kts | 128° |
| 2026-04-28 19:42 | 51.34439 | 0.99026 | 22721 ft | 420 kts | 128° |
| 2026-04-28 19:42 | 51.32637 | 1.02715 | 23088 ft | 422 kts | 128° |
| 2026-04-28 19:42 | 51.31437 | 1.05167 | 23324 ft | 424 kts | 128° |
| 2026-04-28 19:43 | 51.28994 | 1.10142 | 23794 ft | 427 kts | 128° |
| 2026-04-28 19:43 | 51.27153 | 1.13872 | 24150 ft | 429 kts | 128° |
| 2026-04-28 19:43 | 51.25300 | 1.17620 | 24499 ft | 431 kts | 128° |
| 2026-04-28 19:43 | 51.23440 | 1.21383 | 24827 ft | 433 kts | 128° |
| 2026-04-28 19:44 | 51.21573 | 1.25164 | 25154 ft | 435 kts | 128° |
| 2026-04-28 19:44 | 51.19700 | 1.28970 | 25467 ft | 437 kts | 127° |
| 2026-04-28 19:44 | 51.18060 | 1.33070 | 25763 ft | 439 kts | 117° |
| 2026-04-28 19:44 | 51.16837 | 1.37533 | 26043 ft | 441 kts | 109° |
| 2026-04-28 19:45 | 51.16063 | 1.42272 | 26338 ft | 443 kts | 99° |
| 2026-04-28 19:45 | 51.15731 | 1.47154 | 26611 ft | 445 kts | 94° |
| 2026-04-28 19:45 | 51.15506 | 1.52004 | 26881 ft | 446 kts | 94° |
| 2026-04-28 19:45 | 51.15271 | 1.56940 | 27150 ft | 448 kts | 94° |
| 2026-04-28 19:46 | 51.15027 | 1.61896 | 27412 ft | 450 kts | 94° |
| 2026-04-28 19:46 | 51.14778 | 1.66880 | 27674 ft | 451 kts | 95° |
| 2026-04-28 19:46 | 51.14525 | 1.71845 | 28029 ft | 450 kts | 95° |
| 2026-04-28 19:46 | 51.14270 | 1.76812 | 28390 ft | 449 kts | 95° |
| 2026-04-28 19:47 | 51.14018 | 1.81766 | 28741 ft | 449 kts | 95° |
| 2026-04-28 19:47 | 51.13768 | 1.86712 | 29084 ft | 448 kts | 95° |
| 2026-04-28 19:47 | 51.13516 | 1.91652 | 29433 ft | 447 kts | 95° |
| 2026-04-28 19:47 | 51.13260 | 1.96576 | 29769 ft | 446 kts | 95° |
| 2026-04-28 19:48 | 51.13003 | 2.01502 | 30098 ft | 446 kts | 95° |
| 2026-04-28 19:48 | 51.12745 | 2.06419 | 30432 ft | 445 kts | 95° |
| 2026-04-28 19:48 | 51.12484 | 2.11319 | 30761 ft | 444 kts | 95° |
| 2026-04-28 19:48 | 51.12221 | 2.16228 | 31086 ft | 444 kts | 95° |
| 2026-04-28 19:49 | 51.11958 | 2.21103 | 31403 ft | 443 kts | 95° |
| 2026-04-28 19:49 | 51.11692 | 2.25979 | 31720 ft | 442 kts | 95° |
| 2026-04-28 19:49 | 51.11424 | 2.30845 | 32034 ft | 442 kts | 95° |
| 2026-04-28 19:49 | 51.11151 | 2.35712 | 32341 ft | 441 kts | 95° |
| 2026-04-28 19:50 | 51.10601 | 2.45424 | 32952 ft | 440 kts | 95° |
| 2026-04-28 19:50 | 51.10327 | 2.50263 | 33245 ft | 439 kts | 95° |
| 2026-04-28 19:50 | 51.10051 | 2.55093 | 33537 ft | 438 kts | 95° |
| 2026-04-28 19:51 | 51.09774 | 2.59925 | 33825 ft | 438 kts | 95° |
| 2026-04-28 19:51 | 51.09435 | 2.64724 | 34104 ft | 437 kts | 100° |
| 2026-04-28 19:51 | 51.08712 | 2.69423 | 34379 ft | 437 kts | 106° |
| 2026-04-28 19:51 | 51.07865 | 2.74058 | 34652 ft | 436 kts | 106° |
| 2026-04-28 19:52 | 51.07026 | 2.78685 | 34922 ft | 436 kts | 106° |
| 2026-04-28 19:52 | 51.06465 | 2.81797 | 35099 ft | 435 kts | 106° |
| 2026-04-28 19:52 | 51.05357 | 2.87922 | 35425 ft | 435 kts | 106° |
| 2026-04-28 19:52 | 51.04523 | 2.92507 | 35662 ft | 434 kts | 106° |
| 2026-04-28 19:53 | 51.03679 | 2.97134 | 35897 ft | 434 kts | 106° |
| 2026-04-28 19:53 | 51.03114 | 3.00221 | 36049 ft | 433 kts | 106° |
| 2026-04-28 19:53 | 51.01997 | 3.06301 | 36335 ft | 433 kts | 106° |
| 2026-04-28 19:53 | 51.01149 | 3.10893 | 36527 ft | 433 kts | 106° |
| 2026-04-28 19:54 | 51.00306 | 3.15455 | 36716 ft | 433 kts | 106° |
| 2026-04-28 19:54 | 50.99745 | 3.18495 | 36837 ft | 433 kts | 106° |
| 2026-04-28 19:54 | 50.98897 | 3.23073 | 36979 ft | 434 kts | 106° |
| 2026-04-28 19:55 | 50.97183 | 3.32297 | 37009 ft | 437 kts | 106° |
| 2026-04-28 19:55 | 50.95447 | 3.41555 | 37009 ft | 438 kts | 107° |
| 2026-04-28 19:56 | 50.93706 | 3.50806 | 37009 ft | 438 kts | 107° |
| 2026-04-28 19:56 | 50.91959 | 3.60032 | 37009 ft | 438 kts | 107° |
| 2026-04-28 19:57 | 50.90203 | 3.69274 | 37010 ft | 438 kts | 107° |
| 2026-04-28 19:57 | 50.88426 | 3.78504 | 37010 ft | 438 kts | 107° |
| 2026-04-28 19:58 | 50.86635 | 3.87716 | 37008 ft | 438 kts | 107° |
| 2026-04-28 19:58 | 50.84838 | 3.96925 | 37008 ft | 438 kts | 107° |
| 2026-04-28 19:59 | 50.83041 | 4.06122 | 37007 ft | 437 kts | 107° |
| 2026-04-28 19:59 | 50.81237 | 4.15305 | 37006 ft | 438 kts | 107° |
| 2026-04-28 20:00 | 50.79424 | 4.24496 | 37007 ft | 438 kts | 107° |
| 2026-04-28 20:00 | 50.77604 | 4.33677 | 37008 ft | 438 kts | 107° |
| 2026-04-28 20:01 | 50.75785 | 4.42814 | 37008 ft | 438 kts | 107° |
| 2026-04-28 20:01 | 50.73945 | 4.51982 | 37009 ft | 438 kts | 108° |
| 2026-04-28 20:02 | 50.72093 | 4.61146 | 37010 ft | 438 kts | 107° |
| 2026-04-28 20:02 | 50.70291 | 4.70328 | 37009 ft | 438 kts | 107° |
| 2026-04-28 20:03 | 50.68532 | 4.79497 | 37008 ft | 438 kts | 107° |
| 2026-04-28 20:03 | 50.66761 | 4.88670 | 37008 ft | 438 kts | 107° |
| 2026-04-28 20:04 | 50.64939 | 4.97848 | 37009 ft | 439 kts | 108° |
| 2026-04-28 20:04 | 50.63057 | 5.06951 | 37011 ft | 439 kts | 108° |
| 2026-04-28 20:05 | 50.61155 | 5.16084 | 37014 ft | 439 kts | 108° |
| 2026-04-28 20:05 | 50.59257 | 5.25220 | 37016 ft | 439 kts | 108° |
| 2026-04-28 20:06 | 50.57357 | 5.34352 | 37016 ft | 439 kts | 108° |
| 2026-04-28 20:06 | 50.55463 | 5.43419 | 37017 ft | 439 kts | 108° |
| 2026-04-28 20:07 | 50.53546 | 5.52525 | 37014 ft | 439 kts | 108° |
| 2026-04-28 20:07 | 50.51262 | 5.61415 | 37013 ft | 439 kts | 114° |
| 2026-04-28 20:08 | 50.48699 | 5.70109 | 37009 ft | 439 kts | 115° |
| 2026-04-28 20:08 | 50.46092 | 5.78766 | 37006 ft | 439 kts | 115° |
| 2026-04-28 20:09 | 50.43490 | 5.87436 | 37001 ft | 440 kts | 115° |
| 2026-04-28 20:09 | 50.40892 | 5.96129 | 37003 ft | 440 kts | 115° |
| 2026-04-28 20:10 | 50.38292 | 6.04807 | 37005 ft | 440 kts | 115° |
| 2026-04-28 20:10 | 50.35686 | 6.13486 | 37004 ft | 440 kts | 115° |
| 2026-04-28 20:11 | 50.33072 | 6.22130 | 37003 ft | 440 kts | 115° |
| 2026-04-28 20:11 | 50.30440 | 6.30783 | 37002 ft | 440 kts | 115° |
| 2026-04-28 20:12 | 50.27809 | 6.39426 | 37000 ft | 441 kts | 115° |
| 2026-04-28 20:12 | 50.25170 | 6.48073 | 37001 ft | 441 kts | 115° |
| 2026-04-28 20:13 | 50.22526 | 6.56689 | 37002 ft | 441 kts | 115° |
| 2026-04-28 20:13 | 50.19865 | 6.65331 | 37007 ft | 441 kts | 115° |
| 2026-04-28 20:14 | 50.17206 | 6.73955 | 37007 ft | 441 kts | 116° |
| 2026-04-28 20:14 | 50.14538 | 6.82564 | 37009 ft | 441 kts | 116° |
| 2026-04-28 20:15 | 50.11864 | 6.91163 | 37010 ft | 441 kts | 116° |
| 2026-04-28 20:15 | 50.09210 | 6.99675 | 37011 ft | 440 kts | 116° |
| 2026-04-28 20:16 | 50.06542 | 7.08188 | 37013 ft | 440 kts | 116° |
| 2026-04-28 20:16 | 50.03857 | 7.16739 | 37018 ft | 439 kts | 116° |
| 2026-04-28 20:17 | 50.01189 | 7.25195 | 37011 ft | 439 kts | 116° |
| 2026-04-28 20:17 | 49.98490 | 7.33715 | 37006 ft | 439 kts | 116° |
| 2026-04-28 20:18 | 49.95790 | 7.42232 | 37003 ft | 440 kts | 116° |
| 2026-04-28 20:18 | 49.93082 | 7.50736 | 37004 ft | 440 kts | 116° |
| 2026-04-28 20:19 | 49.90359 | 7.59238 | 37001 ft | 440 kts | 116° |
| 2026-04-28 20:19 | 49.87687 | 7.67561 | 37003 ft | 440 kts | 116° |
| 2026-04-28 20:20 | 49.84951 | 7.76051 | 37008 ft | 440 kts | 116° |
| 2026-04-28 20:20 | 49.82213 | 7.84540 | 37014 ft | 440 kts | 116° |
| 2026-04-28 20:21 | 49.79477 | 7.93007 | 37016 ft | 440 kts | 116° |
| 2026-04-28 20:21 | 49.76730 | 8.01447 | 37016 ft | 439 kts | 117° |
| 2026-04-28 20:22 | 49.74003 | 8.09804 | 37014 ft | 439 kts | 117° |
| 2026-04-28 20:22 | 49.71228 | 8.18311 | 37015 ft | 439 kts | 117° |
| 2026-04-28 20:23 | 49.68468 | 8.26707 | 37017 ft | 439 kts | 117° |
| 2026-04-28 20:23 | 49.65691 | 8.35109 | 37019 ft | 439 kts | 117° |
| 2026-04-28 20:24 | 49.62916 | 8.43500 | 37019 ft | 439 kts | 117° |
| 2026-04-28 20:24 | 49.60141 | 8.51882 | 37017 ft | 438 kts | 117° |
| 2026-04-28 20:25 | 49.57357 | 8.60241 | 37015 ft | 438 kts | 117° |
| 2026-04-28 20:25 | 49.54569 | 8.68590 | 37013 ft | 438 kts | 117° |
| 2026-04-28 20:26 | 49.51777 | 8.76930 | 37008 ft | 438 kts | 117° |
| 2026-04-28 20:26 | 49.48976 | 8.85272 | 37002 ft | 439 kts | 117° |
| 2026-04-28 20:27 | 49.46183 | 8.93557 | 37003 ft | 440 kts | 117° |
| 2026-04-28 20:27 | 49.43357 | 9.01899 | 37008 ft | 440 kts | 117° |
| 2026-04-28 20:28 | 49.40528 | 9.10227 | 37009 ft | 440 kts | 117° |
| 2026-04-28 20:28 | 49.37693 | 9.18557 | 37014 ft | 440 kts | 117° |
| 2026-04-28 20:29 | 49.34859 | 9.26868 | 37014 ft | 440 kts | 117° |
| 2026-04-28 20:29 | 49.32016 | 9.35175 | 37013 ft | 440 kts | 117° |
| 2026-04-28 20:30 | 49.29160 | 9.43466 | 37014 ft | 440 kts | 118° |
| 2026-04-28 20:30 | 49.26297 | 9.51742 | 37015 ft | 440 kts | 118° |
| 2026-04-28 20:31 | 49.23430 | 9.60010 | 37014 ft | 440 kts | 118° |
| 2026-04-28 20:31 | 49.20644 | 9.68055 | 37011 ft | 440 kts | 118° |
| 2026-04-28 20:32 | 49.17777 | 9.76319 | 37010 ft | 440 kts | 118° |
| 2026-04-28 20:32 | 49.14895 | 9.84565 | 37011 ft | 440 kts | 118° |
| 2026-04-28 20:33 | 49.12017 | 9.92749 | 37011 ft | 440 kts | 118° |
| 2026-04-28 20:33 | 49.09114 | 10.00989 | 37010 ft | 441 kts | 118° |
| 2026-04-28 20:34 | 49.05992 | 10.09007 | 37010 ft | 440 kts | 128° |
| 2026-04-28 20:34 | 49.01786 | 10.15783 | 37009 ft | 440 kts | 135° |
| 2026-04-28 20:35 | 48.97440 | 10.22367 | 37006 ft | 440 kts | 135° |
| 2026-04-28 20:35 | 48.93102 | 10.28945 | 37003 ft | 440 kts | 135° |
| 2026-04-28 20:36 | 48.88757 | 10.35529 | 37004 ft | 441 kts | 135° |
| 2026-04-28 20:36 | 48.84403 | 10.42094 | 37006 ft | 441 kts | 135° |
| 2026-04-28 20:37 | 48.80044 | 10.48634 | 37009 ft | 441 kts | 135° |
| 2026-04-28 20:37 | 48.75689 | 10.55164 | 37010 ft | 441 kts | 135° |
| 2026-04-28 20:38 | 48.71328 | 10.61691 | 37012 ft | 441 kts | 135° |
| 2026-04-28 20:38 | 48.66965 | 10.68199 | 37012 ft | 441 kts | 135° |
| 2026-04-28 20:39 | 48.62591 | 10.74706 | 37014 ft | 441 kts | 135° |
| 2026-04-28 20:39 | 48.58279 | 10.81293 | 37013 ft | 441 kts | 129° |
| 2026-04-28 20:40 | 48.54423 | 10.88481 | 37011 ft | 441 kts | 129° |
| 2026-04-28 20:40 | 48.51220 | 10.94460 | 37009 ft | 441 kts | 129° |
| 2026-04-28 20:41 | 48.47356 | 11.01629 | 37007 ft | 441 kts | 129° |
| 2026-04-28 20:41 | 48.43485 | 11.08779 | 37005 ft | 441 kts | 129° |
| 2026-04-28 20:42 | 48.39603 | 11.15923 | 37005 ft | 441 kts | 129° |
| 2026-04-28 20:42 | 48.35714 | 11.23054 | 37004 ft | 441 kts | 129° |
| 2026-04-28 20:43 | 48.31818 | 11.30167 | 37003 ft | 441 kts | 129° |
| 2026-04-28 20:43 | 48.27930 | 11.37273 | 37003 ft | 441 kts | 129° |
| 2026-04-28 20:44 | 48.24034 | 11.44383 | 37002 ft | 441 kts | 129° |
| 2026-04-28 20:44 | 48.20135 | 11.51474 | 37002 ft | 441 kts | 129° |
| 2026-04-28 20:45 | 48.16259 | 11.58508 | 37001 ft | 440 kts | 129° |
| 2026-04-28 20:45 | 48.12351 | 11.65575 | 36999 ft | 440 kts | 129° |
| 2026-04-28 20:46 | 48.08437 | 11.72626 | 36998 ft | 440 kts | 130° |
| 2026-04-28 20:46 | 48.04545 | 11.79601 | 36997 ft | 441 kts | 130° |
| 2026-04-28 20:47 | 48.00629 | 11.86621 | 36996 ft | 441 kts | 130° |
| 2026-04-28 20:47 | 47.96713 | 11.93635 | 36997 ft | 441 kts | 130° |
| 2026-04-28 20:48 | 47.92888 | 12.00460 | 36993 ft | 441 kts | 130° |
| 2026-04-28 20:48 | 47.88884 | 12.07400 | 36983 ft | 442 kts | 137° |
| 2026-04-28 20:49 | 47.84157 | 12.13271 | 36986 ft | 443 kts | 141° |
| 2026-04-28 20:49 | 47.79384 | 12.19078 | 36989 ft | 444 kts | 141° |
| 2026-04-28 20:50 | 47.74599 | 12.24881 | 36984 ft | 444 kts | 141° |
| 2026-04-28 20:50 | 47.69801 | 12.30699 | 36985 ft | 446 kts | 141° |
| 2026-04-28 20:51 | 47.64986 | 12.36535 | 36986 ft | 448 kts | 141° |
| 2026-04-28 20:51 | 47.60159 | 12.42370 | 36995 ft | 448 kts | 141° |
| 2026-04-28 20:52 | 47.55340 | 12.48169 | 37000 ft | 448 kts | 141° |
| 2026-04-28 20:52 | 47.50492 | 12.53988 | 36993 ft | 449 kts | 141° |
| 2026-04-28 20:53 | 47.43211 | 12.62699 | 37003 ft | 449 kts | 141° |
| 2026-04-28 20:53 | 47.38347 | 12.68501 | 36993 ft | 450 kts | 141° |
| 2026-04-28 20:54 | 47.33471 | 12.74302 | 37002 ft | 450 kts | 141° |
| 2026-04-28 20:54 | 47.28591 | 12.80107 | 37011 ft | 451 kts | 141° |
| 2026-04-28 20:55 | 47.23711 | 12.85894 | 37013 ft | 450 kts | 141° |
| 2026-04-28 20:55 | 47.18823 | 12.91664 | 36989 ft | 451 kts | 141° |
| 2026-04-28 20:56 | 47.13920 | 12.97434 | 36995 ft | 452 kts | 141° |
| 2026-04-28 20:56 | 47.09007 | 13.03217 | 36999 ft | 452 kts | 141° |
| 2026-04-28 20:57 | 47.04094 | 13.09002 | 36991 ft | 454 kts | 141° |
| 2026-04-28 20:57 | 46.99159 | 13.14779 | 37000 ft | 455 kts | 141° |
| 2026-04-28 20:58 | 46.94221 | 13.20533 | 37023 ft | 454 kts | 141° |
| 2026-04-28 20:58 | 46.89289 | 13.26275 | 37044 ft | 452 kts | 141° |
| 2026-04-28 20:59 | 46.84374 | 13.31990 | 37028 ft | 451 kts | 141° |
| 2026-04-28 20:59 | 46.79464 | 13.37678 | 37031 ft | 450 kts | 141° |
| 2026-04-28 21:00 | 46.74563 | 13.43337 | 37013 ft | 450 kts | 141° |
| 2026-04-28 21:00 | 46.69646 | 13.49009 | 37005 ft | 450 kts | 141° |
| 2026-04-28 21:01 | 46.64743 | 13.54675 | 37003 ft | 451 kts | 141° |
| 2026-04-28 21:01 | 46.59903 | 13.60237 | 37015 ft | 450 kts | 142° |
| 2026-04-28 21:02 | 46.54986 | 13.65855 | 37029 ft | 449 kts | 142° |
| 2026-04-28 21:02 | 46.50076 | 13.71467 | 37018 ft | 449 kts | 142° |
| 2026-04-28 21:03 | 46.45174 | 13.77062 | 37008 ft | 449 kts | 142° |
| 2026-04-28 21:03 | 46.40249 | 13.82661 | 36992 ft | 450 kts | 142° |
| 2026-04-28 21:04 | 46.35308 | 13.88261 | 36986 ft | 452 kts | 142° |
| 2026-04-28 21:04 | 46.30352 | 13.93868 | 37007 ft | 452 kts | 142° |
| 2026-04-28 21:05 | 46.25397 | 13.99463 | 37029 ft | 451 kts | 142° |
| 2026-04-28 21:05 | 46.20487 | 14.04999 | 37025 ft | 450 kts | 142° |
| 2026-04-28 21:06 | 46.15521 | 14.10587 | 37021 ft | 450 kts | 142° |
| 2026-04-28 21:06 | 46.10629 | 14.16071 | 37028 ft | 449 kts | 142° |
| 2026-04-28 21:07 | 46.05715 | 14.21570 | 37027 ft | 448 kts | 142° |
| 2026-04-28 21:07 | 46.00791 | 14.27063 | 37029 ft | 447 kts | 142° |
| 2026-04-28 21:08 | 45.95876 | 14.32537 | 37032 ft | 447 kts | 142° |
| 2026-04-28 21:08 | 45.90967 | 14.37995 | 37031 ft | 446 kts | 142° |
| 2026-04-28 21:09 | 45.86058 | 14.43441 | 37017 ft | 446 kts | 142° |
| 2026-04-28 21:09 | 45.81144 | 14.48875 | 37011 ft | 446 kts | 142° |
| 2026-04-28 21:10 | 45.76218 | 14.54310 | 37008 ft | 447 kts | 142° |
| 2026-04-28 21:10 | 45.71319 | 14.59799 | 37007 ft | 447 kts | 141° |
| 2026-04-28 21:11 | 45.66496 | 14.65423 | 37007 ft | 448 kts | 140° |
| 2026-04-28 21:11 | 45.61677 | 14.71075 | 37004 ft | 448 kts | 141° |
| 2026-04-28 21:12 | 45.56831 | 14.76694 | 37001 ft | 449 kts | 141° |
| 2026-04-28 21:12 | 45.51973 | 14.82288 | 37016 ft | 448 kts | 141° |
| 2026-04-28 21:13 | 45.47119 | 14.87856 | 37024 ft | 448 kts | 141° |
| 2026-04-28 21:13 | 45.42268 | 14.93404 | 37024 ft | 447 kts | 141° |
| 2026-04-28 21:14 | 45.37422 | 14.98949 | 37016 ft | 447 kts | 141° |
| 2026-04-28 21:14 | 45.32574 | 15.04489 | 37009 ft | 447 kts | 141° |
| 2026-04-28 21:15 | 45.27798 | 15.09928 | 37007 ft | 448 kts | 141° |
| 2026-04-28 21:15 | 45.22924 | 15.15465 | 37015 ft | 447 kts | 141° |
| 2026-04-28 21:16 | 45.18067 | 15.20977 | 37015 ft | 447 kts | 141° |
| 2026-04-28 21:16 | 45.13221 | 15.26466 | 37021 ft | 447 kts | 141° |
| 2026-04-28 21:17 | 45.08361 | 15.31949 | 37022 ft | 446 kts | 141° |
| 2026-04-28 21:17 | 45.03508 | 15.37411 | 37016 ft | 446 kts | 141° |
| 2026-04-28 21:18 | 44.98645 | 15.42870 | 37014 ft | 446 kts | 141° |
| 2026-04-28 21:18 | 44.93787 | 15.48319 | 37010 ft | 446 kts | 141° |
| 2026-04-28 21:19 | 44.88949 | 15.53732 | 36998 ft | 447 kts | 141° |
| 2026-04-28 21:19 | 44.84072 | 15.59176 | 37001 ft | 447 kts | 141° |
| 2026-04-28 21:20 | 44.79190 | 15.64607 | 37005 ft | 447 kts | 142° |
| 2026-04-28 21:20 | 44.74305 | 15.70032 | 37008 ft | 447 kts | 142° |
| 2026-04-28 21:21 | 44.69419 | 15.75451 | 37012 ft | 447 kts | 142° |
| 2026-04-28 21:21 | 44.64540 | 15.80859 | 37006 ft | 447 kts | 142° |
| 2026-04-28 21:22 | 44.59648 | 15.86266 | 36993 ft | 448 kts | 142° |
| 2026-04-28 21:22 | 44.55565 | 15.90760 | 36990 ft | 449 kts | 142° |
| 2026-04-28 21:23 | 44.49821 | 15.97071 | 37011 ft | 449 kts | 142° |
| 2026-04-28 21:23 | 44.44912 | 16.02459 | 37004 ft | 449 kts | 142° |
| 2026-04-28 21:24 | 44.39997 | 16.07840 | 37011 ft | 448 kts | 142° |
| 2026-04-28 21:24 | 44.35083 | 16.13197 | 37022 ft | 448 kts | 142° |
| 2026-04-28 21:25 | 44.30173 | 16.18528 | 37016 ft | 447 kts | 142° |
| 2026-04-28 21:25 | 44.25266 | 16.23867 | 37005 ft | 447 kts | 142° |
| 2026-04-28 21:26 | 44.21188 | 16.28294 | 37001 ft | 447 kts | 142° |
| 2026-04-28 21:26 | 44.16273 | 16.33618 | 36997 ft | 448 kts | 142° |
| 2026-04-28 21:27 | 44.10554 | 16.39803 | 36993 ft | 448 kts | 142° |
| 2026-04-28 21:27 | 44.06416 | 16.44262 | 36994 ft | 449 kts | 142° |
| 2026-04-28 21:28 | 44.01479 | 16.49568 | 36996 ft | 449 kts | 142° |
| 2026-04-28 21:28 | 43.96539 | 16.54870 | 36990 ft | 450 kts | 142° |
| 2026-04-28 21:29 | 43.91583 | 16.60180 | 36989 ft | 451 kts | 142° |
| 2026-04-28 21:29 | 43.86613 | 16.65488 | 36999 ft | 451 kts | 142° |
| 2026-04-28 21:30 | 43.81645 | 16.70787 | 37014 ft | 450 kts | 142° |
| 2026-04-28 21:30 | 43.76686 | 16.76062 | 37020 ft | 449 kts | 142° |
| 2026-04-28 21:31 | 43.71736 | 16.81325 | 37018 ft | 449 kts | 142° |
| 2026-04-28 21:31 | 43.66806 | 16.86559 | 37014 ft | 449 kts | 142° |
| 2026-04-28 21:32 | 43.61849 | 16.91789 | 37014 ft | 448 kts | 142° |
| 2026-04-28 21:32 | 43.56925 | 16.96977 | 37018 ft | 448 kts | 142° |
| 2026-04-28 21:33 | 43.51976 | 17.02183 | 37020 ft | 447 kts | 142° |
| 2026-04-28 21:33 | 43.47037 | 17.07382 | 37018 ft | 447 kts | 142° |
| 2026-04-28 21:34 | 43.42089 | 17.12573 | 37020 ft | 447 kts | 142° |
| 2026-04-28 21:34 | 43.37143 | 17.17741 | 37019 ft | 446 kts | 143° |
| 2026-04-28 21:35 | 43.32203 | 17.22891 | 37018 ft | 446 kts | 143° |
| 2026-04-28 21:35 | 43.27264 | 17.28043 | 37006 ft | 446 kts | 143° |
| 2026-04-28 21:36 | 43.22321 | 17.33189 | 37009 ft | 446 kts | 143° |
| 2026-04-28 21:36 | 43.17373 | 17.38323 | 37019 ft | 446 kts | 143° |
| 2026-04-28 21:37 | 43.12433 | 17.43437 | 37027 ft | 444 kts | 143° |
| 2026-04-28 21:37 | 43.07504 | 17.48531 | 37025 ft | 444 kts | 143° |
| 2026-04-28 21:38 | 43.02580 | 17.53608 | 37024 ft | 443 kts | 143° |
| 2026-04-28 21:38 | 42.97657 | 17.58671 | 37021 ft | 443 kts | 143° |
| 2026-04-28 21:39 | 42.92770 | 17.63693 | 37017 ft | 443 kts | 143° |
| 2026-04-28 21:39 | 42.87844 | 17.68734 | 37012 ft | 443 kts | 143° |
| 2026-04-28 21:40 | 42.82919 | 17.73773 | 37014 ft | 443 kts | 143° |
| 2026-04-28 21:40 | 42.77993 | 17.78806 | 37014 ft | 442 kts | 143° |
| 2026-04-28 21:41 | 42.73067 | 17.83816 | 37015 ft | 442 kts | 143° |
| 2026-04-28 21:41 | 42.68139 | 17.88826 | 37015 ft | 442 kts | 143° |
| 2026-04-28 21:42 | 42.62870 | 17.93094 | 37013 ft | 442 kts | 151° |
| 2026-04-28 21:42 | 42.57464 | 17.97083 | 37012 ft | 442 kts | 151° |
| 2026-04-28 21:43 | 42.52064 | 18.01050 | 37011 ft | 442 kts | 152° |
| 2026-04-28 21:43 | 42.46654 | 18.05005 | 37009 ft | 441 kts | 152° |
| 2026-04-28 21:44 | 42.41246 | 18.08946 | 37006 ft | 441 kts | 152° |
| 2026-04-28 21:44 | 42.35881 | 18.12863 | 37004 ft | 441 kts | 152° |
| 2026-04-28 21:45 | 42.30437 | 18.16827 | 37004 ft | 441 kts | 152° |
| 2026-04-28 21:45 | 42.25067 | 18.20731 | 37007 ft | 442 kts | 152° |
| 2026-04-28 21:46 | 42.19644 | 18.24660 | 37011 ft | 442 kts | 152° |
| 2026-04-28 21:46 | 42.14228 | 18.28584 | 37013 ft | 442 kts | 152° |
| 2026-04-28 21:47 | 42.08828 | 18.32485 | 37013 ft | 442 kts | 152° |
| 2026-04-28 21:47 | 42.03413 | 18.36385 | 37011 ft | 442 kts | 152° |
| 2026-04-28 21:48 | 41.97982 | 18.40287 | 37011 ft | 442 kts | 152° |
| 2026-04-28 21:48 | 41.92580 | 18.44170 | 37013 ft | 442 kts | 152° |
| 2026-04-28 21:49 | 41.87191 | 18.48038 | 37014 ft | 442 kts | 152° |
| 2026-04-28 21:49 | 41.81757 | 18.51918 | 37015 ft | 442 kts | 152° |
| 2026-04-28 21:50 | 41.76320 | 18.55789 | 37016 ft | 442 kts | 152° |
| 2026-04-28 21:50 | 41.70885 | 18.59646 | 37017 ft | 442 kts | 152° |
| 2026-04-28 21:51 | 41.65447 | 18.63513 | 37018 ft | 442 kts | 152° |
| 2026-04-28 21:51 | 41.60010 | 18.67378 | 37020 ft | 443 kts | 152° |
| 2026-04-28 21:52 | 41.54571 | 18.71237 | 37021 ft | 443 kts | 152° |
| 2026-04-28 21:52 | 41.49133 | 18.75083 | 37021 ft | 443 kts | 152° |
| 2026-04-28 21:53 | 41.43688 | 18.78921 | 37021 ft | 442 kts | 152° |
| 2026-04-28 21:53 | 41.38249 | 18.82756 | 37020 ft | 442 kts | 152° |
| 2026-04-28 21:54 | 41.32808 | 18.86590 | 37018 ft | 442 kts | 152° |
| 2026-04-28 21:54 | 41.27369 | 18.90410 | 37016 ft | 442 kts | 152° |
| 2026-04-28 21:55 | 41.21988 | 18.94173 | 37017 ft | 442 kts | 152° |
| 2026-04-28 21:55 | 41.16545 | 18.97971 | 37016 ft | 442 kts | 152° |
| 2026-04-28 21:56 | 41.11102 | 19.01759 | 37014 ft | 442 kts | 152° |
| 2026-04-28 21:56 | 41.05655 | 19.05552 | 37014 ft | 442 kts | 152° |
| 2026-04-28 21:57 | 41.00210 | 19.09342 | 37015 ft | 442 kts | 152° |
| 2026-04-28 21:57 | 40.94769 | 19.13128 | 37010 ft | 439 kts | 152° |
| 2026-04-28 21:58 | 40.89396 | 19.16849 | 37009 ft | 441 kts | 152° |
| 2026-04-28 21:58 | 40.83959 | 19.20607 | 37009 ft | 442 kts | 152° |
| 2026-04-28 21:59 | 40.78507 | 19.24363 | 37009 ft | 442 kts | 152° |
| 2026-04-28 22:00 | 40.70327 | 19.29986 | 37008 ft | 442 kts | 152° |